<?xml version="1.0" encoding="UTF-8"?>
<gpx version="1.0" creator="Trackator" xmlns:xsi="http://www.w3.org/2001/XMLSchema-instance" xmlns="http://www.topografix.com/GPX/1/0" xmlns:topografix="http://www.topografix.com/GPX/Private/TopoGrafix/0/1" xsi:schemaLocation="http://www.topografix.com/GPX/1/0 http://www.topografix.com/GPX/1/0/gpx.xsd http://www.topografix.com/GPX/Private/TopoGrafix/0/1 http://www.topografix.com/GPX/Private/TopoGrafix/0/1/topografix.xsd">
<metadata>
<link href="http://www.trackator.com">
<text>Trackator</text>
</link>
</metadata>
<time>2016-01-26T14:30:23Z</time>
<trk>
<name>Track: </name>
<desc>Hiking</desc>
<trkseg>
<trkpt lat="52.1626506" lon="20.9842187">
<ele>134</ele>
<time>2016-01-26T14:30:23Z</time>
</trkpt>
<trkpt lat="52.1628164" lon="20.9841695">
<ele>124</ele>
<time>2016-01-26T14:30:27Z</time>
</trkpt>
<trkpt lat="52.1628164" lon="20.9841695">
<ele>124</ele>
<time>2016-01-26T14:30:29Z</time>
</trkpt>
<trkpt lat="52.1628164" lon="20.9841695">
<ele>124</ele>
<time>2016-01-26T14:30:31Z</time>
</trkpt>
<trkpt lat="52.1628164" lon="20.9841695">
<ele>124</ele>
<time>2016-01-26T14:30:33Z</time>
</trkpt>
<trkpt lat="52.1628164" lon="20.9841695">
<ele>124</ele>
<time>2016-01-26T14:30:35Z</time>
</trkpt>
<trkpt lat="52.1628164" lon="20.9841695">
<ele>124</ele>
<time>2016-01-26T14:30:37Z</time>
</trkpt>
<trkpt lat="52.1628164" lon="20.9841695">
<ele>124</ele>
<time>2016-01-26T14:30:39Z</time>
</trkpt>
<trkpt lat="52.1628164" lon="20.9841695">
<ele>124</ele>
<time>2016-01-26T14:30:41Z</time>
</trkpt>
<trkpt lat="52.1628164" lon="20.9841695">
<ele>124</ele>
<time>2016-01-26T14:30:43Z</time>
</trkpt>
<trkpt lat="52.1628164" lon="20.9841695">
<ele>124</ele>
<time>2016-01-26T14:30:45Z</time>
</trkpt>
<trkpt lat="52.1628164" lon="20.9841695">
<ele>124</ele>
<time>2016-01-26T14:30:47Z</time>
</trkpt>
<trkpt lat="52.1628164" lon="20.9841695">
<ele>124</ele>
<time>2016-01-26T14:30:49Z</time>
</trkpt>
<trkpt lat="52.1628164" lon="20.9841695">
<ele>124</ele>
<time>2016-01-26T14:30:51Z</time>
</trkpt>
<trkpt lat="52.1628164" lon="20.9841695">
<ele>124</ele>
<time>2016-01-26T14:30:53Z</time>
</trkpt>
<trkpt lat="52.1628164" lon="20.9841695">
<ele>124</ele>
<time>2016-01-26T14:30:55Z</time>
</trkpt>
<trkpt lat="52.1628164" lon="20.9841695">
<ele>124</ele>
<time>2016-01-26T14:30:57Z</time>
</trkpt>
<trkpt lat="52.1628164" lon="20.9841695">
<ele>124</ele>
<time>2016-01-26T14:30:59Z</time>
</trkpt>
<trkpt lat="52.1628164" lon="20.9841695">
<ele>124</ele>
<time>2016-01-26T14:31:01Z</time>
</trkpt>
<trkpt lat="52.1628164" lon="20.9841695">
<ele>124</ele>
<time>2016-01-26T14:31:03Z</time>
</trkpt>
<trkpt lat="52.1628164" lon="20.9841695">
<ele>124</ele>
<time>2016-01-26T14:31:05Z</time>
</trkpt>
<trkpt lat="52.1628164" lon="20.9841695">
<ele>124</ele>
<time>2016-01-26T14:31:07Z</time>
</trkpt>
<trkpt lat="52.1628093" lon="20.9841703">
<ele>124</ele>
<time>2016-01-26T14:31:09Z</time>
</trkpt>
<trkpt lat="52.1627895" lon="20.9841692">
<ele>125</ele>
<time>2016-01-26T14:31:11Z</time>
</trkpt>
<trkpt lat="" lon="">
<ele></ele>
<time>2016-01-26TZ</time>
</trkpt>
</trkseg>
</trk>
<wpt lat="" lon="">
	<name></name>
	<desc></desc>
	<cmt></cmt>
	<photoid></photoid>
	<type></type>
</wpt>
</gpx>
